Terminal Aerodrome Forecast
Issued by NWS Wichita, KS

Home | Current Version | Previous Version | Text Only | Print | Product List | Glossary Off
Versions: 1 2 3 4 5 6 7 8 9 10 11 12 13 14 15

636
FTUS43 KICT 211722
TAFICT
TAF
KICT 211722Z 2118/2218 04019G26KT P6SM FEW040 BKN200
     FM220000 06014G20KT P6SM SCT040
     FM221200 08013KT P6SM OVC030=

USA.gov is the U.S. government's official web portal to all federal, state and local government web resources and services.